sensor_id;sensor_type;location;lat;lon;timestamp;temperature;humidity
30037;DHT22;36325;51.512;-0.382;2024-01-30T00:00:34;12.80;99.90
30037;DHT22;36325;51.512;-0.382;2024-01-30T00:03:01;12.80;99.90
30037;DHT22;36325;51.512;-0.382;2024-01-30T00:05:28;12.80;99.90
30037;DHT22;36325;51.512;-0.382;2024-01-30T00:07:56;12.80;99.90
30037;DHT22;36325;51.512;-0.382;2024-01-30T00:10:27;12.80;99.90
30037;DHT22;36325;51.512;-0.382;2024-01-30T00:12:58;12.80;99.90
30037;DHT22;36325;51.512;-0.382;2024-01-30T00:15:25;12.90;99.90
30037;DHT22;36325;51.512;-0.382;2024-01-30T00:17:53;12.90;99.90
30037;DHT22;36325;51.512;-0.382;2024-01-30T00:20:20;12.90;99.90
30037;DHT22;36325;51.512;-0.382;2024-01-30T00:22:48;12.90;99.90
30037;DHT22;36325;51.512;-0.382;2024-01-30T00:25:15;12.90;99.90
30037;DHT22;36325;51.512;-0.382;2024-01-30T00:27:43;12.90;99.90
30037;DHT22;36325;51.512;-0.382;2024-01-30T00:30:10;12.90;99.90
30037;DHT22;36325;51.512;-0.382;2024-01-30T00:32:39;12.90;99.90
30037;DHT22;36325;51.512;-0.382;2024-01-30T00:35:06;12.90;99.90
30037;DHT22;36325;51.512;-0.382;2024-01-30T00:37:33;12.90;99.90
30037;DHT22;36325;51.512;-0.382;2024-01-30T00:40:00;12.90;99.90
30037;DHT22;36325;51.512;-0.382;2024-01-30T00:42:27;12.80;99.90
30037;DHT22;36325;51.512;-0.382;2024-01-30T00:44:59;12.80;99.90
30037;DHT22;36325;51.512;-0.382;2024-01-30T00:47:26;12.80;99.90
30037;DHT22;36325;51.512;-0.382;2024-01-30T00:49:53;12.80;99.90
30037;DHT22;36325;51.512;-0.382;2024-01-30T00:52:21;12.80;99.90
30037;DHT22;36325;51.512;-0.382;2024-01-30T00:54:49;12.70;99.90
30037;DHT22;36325;51.512;-0.382;2024-01-30T00:57:16;14.80;99.90
30037;DHT22;36325;51.512;-0.382;2024-01-30T00:59:43;12.70;99.90
30037;DHT22;36325;51.512;-0.382;2024-01-30T01:02:11;12.60;99.90
30037;DHT22;36325;51.512;-0.382;2024-01-30T01:04:38;12.60;99.90
30037;DHT22;36325;51.512;-0.382;2024-01-30T01:07:05;12.60;99.90
30037;DHT22;36325;51.512;-0.382;2024-01-30T01:09:33;12.60;99.90
30037;DHT22;36325;51.512;-0.382;2024-01-30T01:12:00;12.60;99.90
30037;DHT22;36325;51.512;-0.382;2024-01-30T01:14:27;12.60;99.90
30037;DHT22;36325;51.512;-0.382;2024-01-30T01:16:54;12.60;99.90
30037;DHT22;36325;51.512;-0.382;2024-01-30T01:19:21;12.60;99.90
30037;DHT22;36325;51.512;-0.382;2024-01-30T01:21:49;12.50;99.90
30037;DHT22;36325;51.512;-0.382;2024-01-30T01:24:16;12.50;99.90
30037;DHT22;36325;51.512;-0.382;2024-01-30T01:26:43;12.50;99.90
30037;DHT22;36325;51.512;-0.382;2024-01-30T01:29:10;12.40;99.90
30037;DHT22;36325;51.512;-0.382;2024-01-30T01:31:39;12.40;99.90
30037;DHT22;36325;51.512;-0.382;2024-01-30T01:34:10;12.30;99.90
30037;DHT22;36325;51.512;-0.382;2024-01-30T01:36:38;12.20;99.90
30037;DHT22;36325;51.512;-0.382;2024-01-30T01:39:06;12.00;99.90
30037;DHT22;36325;51.512;-0.382;2024-01-30T01:41:33;11.90;99.90
30037;DHT22;36325;51.512;-0.382;2024-01-30T01:44:00;11.80;99.90
30037;DHT22;36325;51.512;-0.382;2024-01-30T01:46:28;11.70;99.90
30037;DHT22;36325;51.512;-0.382;2024-01-30T01:48:57;11.60;99.90
30037;DHT22;36325;51.512;-0.382;2024-01-30T01:51:24;11.50;99.90
30037;DHT22;36325;51.512;-0.382;2024-01-30T01:53:56;11.50;99.90
30037;DHT22;36325;51.512;-0.382;2024-01-30T01:56:24;11.50;99.90
30037;DHT22;36325;51.512;-0.382;2024-01-30T01:58:51;11.40;99.90
30037;DHT22;36325;51.512;-0.382;2024-01-30T02:01:21;11.40;99.90
30037;DHT22;36325;51.512;-0.382;2024-01-30T02:03:48;11.40;99.90
30037;DHT22;36325;51.512;-0.382;2024-01-30T02:06:15;11.40;99.90
30037;DHT22;36325;51.512;-0.382;2024-01-30T02:08:46;11.30;99.90
30037;DHT22;36325;51.512;-0.382;2024-01-30T02:11:13;11.30;99.90
30037;DHT22;36325;51.512;-0.382;2024-01-30T02:13:40;11.30;99.90
30037;DHT22;36325;51.512;-0.382;2024-01-30T02:16:07;11.30;99.90
30037;DHT22;36325;51.512;-0.382;2024-01-30T02:18:35;11.20;99.90
30037;DHT22;36325;51.512;-0.382;2024-01-30T02:21:05;11.10;99.90
30037;DHT22;36325;51.512;-0.382;2024-01-30T02:23:32;11.20;99.90
30037;DHT22;36325;51.512;-0.382;2024-01-30T02:26:01;11.10;99.90
30037;DHT22;36325;51.512;-0.382;2024-01-30T02:28:28;11.10;99.90
30037;DHT22;36325;51.512;-0.382;2024-01-30T02:30:55;11.10;99.90
30037;DHT22;36325;51.512;-0.382;2024-01-30T02:33:23;11.10;99.90
30037;DHT22;36325;51.512;-0.382;2024-01-30T02:35:51;11.00;99.90
30037;DHT22;36325;51.512;-0.382;2024-01-30T02:38:18;11.00;99.90
30037;DHT22;36325;51.512;-0.382;2024-01-30T02:40:45;11.00;99.90
30037;DHT22;36325;51.512;-0.382;2024-01-30T02:43:12;11.00;99.90
30037;DHT22;36325;51.512;-0.382;2024-01-30T02:45:39;10.90;99.90
30037;DHT22;36325;51.512;-0.382;2024-01-30T02:48:07;10.90;99.90
30037;DHT22;36325;51.512;-0.382;2024-01-30T02:50:34;10.90;99.90
30037;DHT22;36325;51.512;-0.382;2024-01-30T02:53:01;10.90;99.90
30037;DHT22;36325;51.512;-0.382;2024-01-30T02:55:29;10.90;99.90
30037;DHT22;36325;51.512;-0.382;2024-01-30T02:57:57;10.90;99.90
30037;DHT22;36325;51.512;-0.382;2024-01-30T03:00:24;10.80;99.90
30037;DHT22;36325;51.512;-0.382;2024-01-30T03:02:54;10.80;99.90
30037;DHT22;36325;51.512;-0.382;2024-01-30T03:05:21;10.80;99.90
30037;DHT22;36325;51.512;-0.382;2024-01-30T03:07:49;10.80;99.90
30037;DHT22;36325;51.512;-0.382;2024-01-30T03:10:17;10.80;99.90
30037;DHT22;36325;51.512;-0.382;2024-01-30T03:12:44;10.80;99.90
30037;DHT22;36325;51.512;-0.382;2024-01-30T03:15:11;10.80;99.90
30037;DHT22;36325;51.512;-0.382;2024-01-30T03:17:38;10.80;99.90
30037;DHT22;36325;51.512;-0.382;2024-01-30T03:20:05;10.80;99.90
30037;DHT22;36325;51.512;-0.382;2024-01-30T03:22:33;10.80;99.90
30037;DHT22;36325;51.512;-0.382;2024-01-30T03:25:00;10.80;99.90
30037;DHT22;36325;51.512;-0.382;2024-01-30T03:27:27;10.70;99.90
30037;DHT22;36325;51.512;-0.382;2024-01-30T03:29:55;10.70;99.90
30037;DHT22;36325;51.512;-0.382;2024-01-30T03:32:23;10.70;99.90
30037;DHT22;36325;51.512;-0.382;2024-01-30T03:34:50;10.70;99.90
30037;DHT22;36325;51.512;-0.382;2024-01-30T03:37:17;10.70;99.90
30037;DHT22;36325;51.512;-0.382;2024-01-30T03:39:44;10.60;99.90
30037;DHT22;36325;51.512;-0.382;2024-01-30T03:42:11;10.60;99.90
30037;DHT22;36325;51.512;-0.382;2024-01-30T03:44:39;10.50;99.90
30037;DHT22;36325;51.512;-0.382;2024-01-30T03:47:07;10.50;99.90
30037;DHT22;36325;51.512;-0.382;2024-01-30T03:49:34;10.50;99.90
30037;DHT22;36325;51.512;-0.382;2024-01-30T03:52:01;10.50;99.90
30037;DHT22;36325;51.512;-0.382;2024-01-30T03:54:28;10.50;99.90
30037;DHT22;36325;51.512;-0.382;2024-01-30T03:56:55;10.50;99.90
30037;DHT22;36325;51.512;-0.382;2024-01-30T03:59:22;10.50;99.90
30037;DHT22;36325;51.512;-0.382;2024-01-30T04:01:51;10.50;99.90
30037;DHT22;36325;51.512;-0.382;2024-01-30T04:04:18;10.40;99.90
30037;DHT22;36325;51.512;-0.382;2024-01-30T04:06:47;10.60;99.90
30037;DHT22;36325;51.512;-0.382;2024-01-30T04:09:14;10.40;99.90
30037;DHT22;36325;51.512;-0.382;2024-01-30T04:11:41;10.40;99.90
30037;DHT22;36325;51.512;-0.382;2024-01-30T04:14:09;10.40;99.90
30037;DHT22;36325;51.512;-0.382;2024-01-30T04:16:37;10.40;99.90
30037;DHT22;36325;51.512;-0.382;2024-01-30T04:19:11;10.30;99.90
30037;DHT22;36325;51.512;-0.382;2024-01-30T04:21:45;10.30;99.90
30037;DHT22;36325;51.512;-0.382;2024-01-30T04:24:12;10.30;99.90
30037;DHT22;36325;51.512;-0.382;2024-01-30T04:26:40;10.30;99.90
30037;DHT22;36325;51.512;-0.382;2024-01-30T04:29:07;10.30;99.90
30037;DHT22;36325;51.512;-0.382;2024-01-30T04:31:38;10.30;99.90
30037;DHT22;36325;51.512;-0.382;2024-01-30T04:34:05;10.30;99.90
30037;DHT22;36325;51.512;-0.382;2024-01-30T04:36:32;10.30;99.90
30037;DHT22;36325;51.512;-0.382;2024-01-30T04:38:59;10.20;99.90
30037;DHT22;36325;51.512;-0.382;2024-01-30T04:41:27;10.30;99.90
30037;DHT22;36325;51.512;-0.382;2024-01-30T04:43:58;10.30;99.90
30037;DHT22;36325;51.512;-0.382;2024-01-30T04:46:25;10.30;99.90
30037;DHT22;36325;51.512;-0.382;2024-01-30T04:48:52;10.20;99.90
30037;DHT22;36325;51.512;-0.382;2024-01-30T04:51:20;10.30;99.90
30037;DHT22;36325;51.512;-0.382;2024-01-30T04:53:47;10.30;99.90
30037;DHT22;36325;51.512;-0.382;2024-01-30T04:56:14;10.30;99.90
30037;DHT22;36325;51.512;-0.382;2024-01-30T04:58:41;10.30;99.90
30037;DHT22;36325;51.512;-0.382;2024-01-30T05:01:08;10.20;99.90
30037;DHT22;36325;51.512;-0.382;2024-01-30T05:03:36;10.30;99.90
30037;DHT22;36325;51.512;-0.382;2024-01-30T05:06:03;10.30;99.90
30037;DHT22;36325;51.512;-0.382;2024-01-30T05:08:30;10.20;99.90
30037;DHT22;36325;51.512;-0.382;2024-01-30T05:11:01;10.20;99.90
30037;DHT22;36325;51.512;-0.382;2024-01-30T05:13:30;10.10;99.90
30037;DHT22;36325;51.512;-0.382;2024-01-30T05:15:58;10.00;99.90
30037;DHT22;36325;51.512;-0.382;2024-01-30T05:18:25;9.90;99.90
30037;DHT22;36325;51.512;-0.382;2024-01-30T05:20:52;9.90;99.90
30037;DHT22;36325;51.512;-0.382;2024-01-30T05:23:20;9.70;99.90
30037;DHT22;36325;51.512;-0.382;2024-01-30T05:25:47;9.60;99.90
30037;DHT22;36325;51.512;-0.382;2024-01-30T05:28:14;9.50;99.90
30037;DHT22;36325;51.512;-0.382;2024-01-30T05:30:41;9.50;99.90
30037;DHT22;36325;51.512;-0.382;2024-01-30T05:33:09;9.50;99.90
30037;DHT22;36325;51.512;-0.382;2024-01-30T05:35:39;9.40;99.90
30037;DHT22;36325;51.512;-0.382;2024-01-30T05:38:06;9.30;99.90
30037;DHT22;36325;51.512;-0.382;2024-01-30T05:40:34;9.20;99.90
30037;DHT22;36325;51.512;-0.382;2024-01-30T05:43:01;9.20;99.90
30037;DHT22;36325;51.512;-0.382;2024-01-30T05:45:30;9.10;99.90
30037;DHT22;36325;51.512;-0.382;2024-01-30T05:47:57;9.00;99.90
30037;DHT22;36325;51.512;-0.382;2024-01-30T05:50:24;8.90;99.90
30037;DHT22;36325;51.512;-0.382;2024-01-30T05:52:53;8.90;99.90
30037;DHT22;36325;51.512;-0.382;2024-01-30T05:55:20;8.90;99.90
30037;DHT22;36325;51.512;-0.382;2024-01-30T05:57:47;8.80;99.90
30037;DHT22;36325;51.512;-0.382;2024-01-30T06:00:15;8.80;99.90
30037;DHT22;36325;51.512;-0.382;2024-01-30T06:02:42;8.80;99.90
30037;DHT22;36325;51.512;-0.382;2024-01-30T06:05:09;8.70;99.90
30037;DHT22;36325;51.512;-0.382;2024-01-30T06:07:37;8.70;99.90
30037;DHT22;36325;51.512;-0.382;2024-01-30T06:10:04;8.70;99.90
30037;DHT22;36325;51.512;-0.382;2024-01-30T06:12:34;8.70;99.90
30037;DHT22;36325;51.512;-0.382;2024-01-30T06:15:01;8.70;99.90
30037;DHT22;36325;51.512;-0.382;2024-01-30T06:17:29;8.70;99.90
30037;DHT22;36325;51.512;-0.382;2024-01-30T06:19:56;8.80;99.90
30037;DHT22;36325;51.512;-0.382;2024-01-30T06:22:23;8.80;99.90
30037;DHT22;36325;51.512;-0.382;2024-01-30T06:24:50;8.80;99.90
30037;DHT22;36325;51.512;-0.382;2024-01-30T06:27:17;8.80;99.90
30037;DHT22;36325;51.512;-0.382;2024-01-30T06:29:45;8.80;99.90
30037;DHT22;36325;51.512;-0.382;2024-01-30T06:32:12;8.90;99.90
30037;DHT22;36325;51.512;-0.382;2024-01-30T06:34:41;8.90;99.90
30037;DHT22;36325;51.512;-0.382;2024-01-30T06:37:11;8.90;99.90
30037;DHT22;36325;51.512;-0.382;2024-01-30T06:39:39;9.00;99.90
30037;DHT22;36325;51.512;-0.382;2024-01-30T06:42:06;8.90;99.90
30037;DHT22;36325;51.512;-0.382;2024-01-30T06:44:34;8.90;99.90
30037;DHT22;36325;51.512;-0.382;2024-01-30T06:47:01;8.90;99.90
30037;DHT22;36325;51.512;-0.382;2024-01-30T06:49:30;8.90;99.90
30037;DHT22;36325;51.512;-0.382;2024-01-30T06:51:58;8.90;99.90
30037;DHT22;36325;51.512;-0.382;2024-01-30T06:54:25;8.90;99.90
30037;DHT22;36325;51.512;-0.382;2024-01-30T06:56:53;9.00;99.90
30037;DHT22;36325;51.512;-0.382;2024-01-30T06:59:20;9.00;99.90
30037;DHT22;36325;51.512;-0.382;2024-01-30T07:01:47;9.00;99.90
30037;DHT22;36325;51.512;-0.382;2024-01-30T07:04:16;9.00;99.90
30037;DHT22;36325;51.512;-0.382;2024-01-30T07:06:43;9.00;99.90
30037;DHT22;36325;51.512;-0.382;2024-01-30T07:09:11;9.00;99.90
30037;DHT22;36325;51.512;-0.382;2024-01-30T07:11:40;9.00;99.90
30037;DHT22;36325;51.512;-0.382;2024-01-30T07:14:08;9.00;99.90
30037;DHT22;36325;51.512;-0.382;2024-01-30T07:16:36;9.00;99.90
30037;DHT22;36325;51.512;-0.382;2024-01-30T07:19:03;9.00;99.90
30037;DHT22;36325;51.512;-0.382;2024-01-30T07:21:30;9.00;99.90
30037;DHT22;36325;51.512;-0.382;2024-01-30T07:23:57;9.00;99.90
30037;DHT22;36325;51.512;-0.382;2024-01-30T07:26:26;9.00;99.90
30037;DHT22;36325;51.512;-0.382;2024-01-30T07:28:56;9.00;99.90
30037;DHT22;36325;51.512;-0.382;2024-01-30T07:31:24;9.00;99.90
30037;DHT22;36325;51.512;-0.382;2024-01-30T07:33:52;9.00;99.90
30037;DHT22;36325;51.512;-0.382;2024-01-30T07:36:20;9.00;99.90
30037;DHT22;36325;51.512;-0.382;2024-01-30T07:38:48;9.00;99.90
30037;DHT22;36325;51.512;-0.382;2024-01-30T07:41:17;9.00;99.90
30037;DHT22;36325;51.512;-0.382;2024-01-30T07:43:45;9.00;99.90
30037;DHT22;36325;51.512;-0.382;2024-01-30T07:46:12;9.00;99.90
30037;DHT22;36325;51.512;-0.382;2024-01-30T07:48:42;8.90;99.90
30037;DHT22;36325;51.512;-0.382;2024-01-30T07:51:12;8.90;99.90
30037;DHT22;36325;51.512;-0.382;2024-01-30T07:53:48;8.90;99.90
30037;DHT22;36325;51.512;-0.382;2024-01-30T07:56:15;8.90;99.90
30037;DHT22;36325;51.512;-0.382;2024-01-30T07:58:43;8.90;99.90
30037;DHT22;36325;51.512;-0.382;2024-01-30T08:01:10;9.00;99.90
30037;DHT22;36325;51.512;-0.382;2024-01-30T08:03:39;8.90;99.90
30037;DHT22;36325;51.512;-0.382;2024-01-30T08:06:10;8.90;99.90
30037;DHT22;36325;51.512;-0.382;2024-01-30T08:08:37;8.90;99.90
30037;DHT22;36325;51.512;-0.382;2024-01-30T08:11:05;9.00;99.90
30037;DHT22;36325;51.512;-0.382;2024-01-30T08:13:33;9.00;99.90
30037;DHT22;36325;51.512;-0.382;2024-01-30T08:16:00;9.00;99.90
30037;DHT22;36325;51.512;-0.382;2024-01-30T08:18:27;9.00;99.90
30037;DHT22;36325;51.512;-0.382;2024-01-30T08:20:55;9.00;99.90
30037;DHT22;36325;51.512;-0.382;2024-01-30T08:23:22;9.00;99.90
30037;DHT22;36325;51.512;-0.382;2024-01-30T08:25:49;9.00;99.90
30037;DHT22;36325;51.512;-0.382;2024-01-30T08:28:16;9.00;99.90
30037;DHT22;36325;51.512;-0.382;2024-01-30T08:30:45;9.00;99.90
30037;DHT22;36325;51.512;-0.382;2024-01-30T08:33:12;9.10;99.90
30037;DHT22;36325;51.512;-0.382;2024-01-30T08:35:39;9.10;99.90
30037;DHT22;36325;51.512;-0.382;2024-01-30T08:38:06;9.10;99.90
30037;DHT22;36325;51.512;-0.382;2024-01-30T08:40:36;9.10;99.90
30037;DHT22;36325;51.512;-0.382;2024-01-30T08:43:03;9.10;99.90
30037;DHT22;36325;51.512;-0.382;2024-01-30T08:45:32;9.10;99.90
30037;DHT22;36325;51.512;-0.382;2024-01-30T08:48:03;9.10;99.90
30037;DHT22;36325;51.512;-0.382;2024-01-30T08:50:33;9.10;99.90
30037;DHT22;36325;51.512;-0.382;2024-01-30T08:53:00;9.10;99.90
30037;DHT22;36325;51.512;-0.382;2024-01-30T08:55:28;9.10;99.90
30037;DHT22;36325;51.512;-0.382;2024-01-30T08:57:57;9.10;99.90
30037;DHT22;36325;51.512;-0.382;2024-01-30T09:00:25;9.10;99.90
30037;DHT22;36325;51.512;-0.382;2024-01-30T09:02:53;9.10;99.90
30037;DHT22;36325;51.512;-0.382;2024-01-30T09:05:21;9.20;99.90
30037;DHT22;36325;51.512;-0.382;2024-01-30T09:07:49;9.20;99.90
30037;DHT22;36325;51.512;-0.382;2024-01-30T09:10:16;9.20;99.90
30037;DHT22;36325;51.512;-0.382;2024-01-30T09:12:46;9.20;99.90
30037;DHT22;36325;51.512;-0.382;2024-01-30T09:15:13;9.20;99.90
30037;DHT22;36325;51.512;-0.382;2024-01-30T09:17:41;9.30;99.90
30037;DHT22;36325;51.512;-0.382;2024-01-30T09:20:08;9.30;99.90
30037;DHT22;36325;51.512;-0.382;2024-01-30T09:26:04;9.40;99.90
30037;DHT22;36325;51.512;-0.382;2024-01-30T09:28:31;9.40;99.90
30037;DHT22;36325;51.512;-0.382;2024-01-30T09:30:59;9.40;99.90
30037;DHT22;36325;51.512;-0.382;2024-01-30T09:33:26;9.50;99.90
30037;DHT22;36325;51.512;-0.382;2024-01-30T09:35:53;9.50;99.90
30037;DHT22;36325;51.512;-0.382;2024-01-30T09:38:20;9.60;99.90
30037;DHT22;36325;51.512;-0.382;2024-01-30T09:40:50;9.60;99.90
30037;DHT22;36325;51.512;-0.382;2024-01-30T09:43:18;9.60;99.90
30037;DHT22;36325;51.512;-0.382;2024-01-30T09:45:53;9.80;99.90
30037;DHT22;36325;51.512;-0.382;2024-01-30T09:48:21;9.70;99.90
30037;DHT22;36325;51.512;-0.382;2024-01-30T09:50:52;9.80;99.90
30037;DHT22;36325;51.512;-0.382;2024-01-30T09:53:21;9.90;99.90
30037;DHT22;36325;51.512;-0.382;2024-01-30T09:55:50;9.80;99.90
30037;DHT22;36325;51.512;-0.382;2024-01-30T09:58:22;9.90;99.90
30037;DHT22;36325;51.512;-0.382;2024-01-30T10:00:50;10.00;99.90
30037;DHT22;36325;51.512;-0.382;2024-01-30T10:03:17;10.10;99.90
30037;DHT22;36325;51.512;-0.382;2024-01-30T10:05:50;10.10;99.90
30037;DHT22;36325;51.512;-0.382;2024-01-30T10:08:18;10.20;99.90
30037;DHT22;36325;51.512;-0.382;2024-01-30T10:10:49;10.20;99.90
30037;DHT22;36325;51.512;-0.382;2024-01-30T10:13:18;10.20;99.90
30037;DHT22;36325;51.512;-0.382;2024-01-30T10:15:48;10.20;99.90
30037;DHT22;36325;51.512;-0.382;2024-01-30T10:18:15;10.20;99.90
30037;DHT22;36325;51.512;-0.382;2024-01-30T10:20:43;10.20;99.90
30037;DHT22;36325;51.512;-0.382;2024-01-30T10:23:10;10.20;99.90
30037;DHT22;36325;51.512;-0.382;2024-01-30T10:25:39;10.20;99.90
30037;DHT22;36325;51.512;-0.382;2024-01-30T10:28:06;10.20;99.90
30037;DHT22;36325;51.512;-0.382;2024-01-30T10:30:34;10.20;99.90
30037;DHT22;36325;51.512;-0.382;2024-01-30T10:33:02;10.20;99.90
30037;DHT22;36325;51.512;-0.382;2024-01-30T10:35:33;10.10;99.90
30037;DHT22;36325;51.512;-0.382;2024-01-30T10:38:02;10.00;99.90
30037;DHT22;36325;51.512;-0.382;2024-01-30T10:40:31;10.00;99.90
30037;DHT22;36325;51.512;-0.382;2024-01-30T10:42:59;10.00;99.90
30037;DHT22;36325;51.512;-0.382;2024-01-30T10:45:30;9.90;99.90
30037;DHT22;36325;51.512;-0.382;2024-01-30T10:48:00;10.00;99.90
30037;DHT22;36325;51.512;-0.382;2024-01-30T10:50:28;10.60;99.90
30037;DHT22;36325;51.512;-0.382;2024-01-30T10:52:56;10.00;99.90
30037;DHT22;36325;51.512;-0.382;2024-01-30T10:55:25;9.90;99.90
30037;DHT22;36325;51.512;-0.382;2024-01-30T10:57:55;9.90;99.90
30037;DHT22;36325;51.512;-0.382;2024-01-30T11:00:22;9.90;99.90
30037;DHT22;36325;51.512;-0.382;2024-01-30T11:02:54;9.90;99.90
30037;DHT22;36325;51.512;-0.382;2024-01-30T11:05:25;9.90;99.90
30037;DHT22;36325;51.512;-0.382;2024-01-30T11:07:58;9.80;99.90
30037;DHT22;36325;51.512;-0.382;2024-01-30T11:10:46;9.90;99.90
30037;DHT22;36325;51.512;-0.382;2024-01-30T11:13:16;9.90;99.90
30037;DHT22;36325;51.512;-0.382;2024-01-30T11:15:44;9.90;99.90
30037;DHT22;36325;51.512;-0.382;2024-01-30T11:18:25;9.90;99.90
30037;DHT22;36325;51.512;-0.382;2024-01-30T11:20:52;9.90;99.90
30037;DHT22;36325;51.512;-0.382;2024-01-30T11:23:22;9.90;99.90
30037;DHT22;36325;51.512;-0.382;2024-01-30T11:25:51;9.90;99.90
30037;DHT22;36325;51.512;-0.382;2024-01-30T11:28:23;9.90;99.90
30037;DHT22;36325;51.512;-0.382;2024-01-30T11:31:05;9.90;99.90
30037;DHT22;36325;51.512;-0.382;2024-01-30T11:33:33;10.00;99.90
30037;DHT22;36325;51.512;-0.382;2024-01-30T11:36:01;9.90;99.90
30037;DHT22;36325;51.512;-0.382;2024-01-30T11:38:30;9.90;99.90
30037;DHT22;36325;51.512;-0.382;2024-01-30T11:41:01;9.90;99.90
30037;DHT22;36325;51.512;-0.382;2024-01-30T11:43:29;9.90;99.90
30037;DHT22;36325;51.512;-0.382;2024-01-30T11:46:00;9.90;99.90
30037;DHT22;36325;51.512;-0.382;2024-01-30T11:48:36;9.90;99.90
30037;DHT22;36325;51.512;-0.382;2024-01-30T11:51:04;9.80;99.90
30037;DHT22;36325;51.512;-0.382;2024-01-30T11:53:32;9.90;99.90
30037;DHT22;36325;51.512;-0.382;2024-01-30T11:56:00;9.90;99.90
30037;DHT22;36325;51.512;-0.382;2024-01-30T11:58:27;9.90;99.90
30037;DHT22;36325;51.512;-0.382;2024-01-30T12:00:55;9.90;99.90
30037;DHT22;36325;51.512;-0.382;2024-01-30T12:03:23;10.00;99.90
30037;DHT22;36325;51.512;-0.382;2024-01-30T12:05:56;10.00;99.90
30037;DHT22;36325;51.512;-0.382;2024-01-30T12:08:28;10.00;99.90
30037;DHT22;36325;51.512;-0.382;2024-01-30T12:10:58;10.00;99.90
30037;DHT22;36325;51.512;-0.382;2024-01-30T12:13:28;10.00;99.90
30037;DHT22;36325;51.512;-0.382;2024-01-30T12:15:58;10.00;99.90
30037;DHT22;36325;51.512;-0.382;2024-01-30T12:18:27;9.90;99.90
30037;DHT22;36325;51.512;-0.382;2024-01-30T12:20:58;9.90;99.90
30037;DHT22;36325;51.512;-0.382;2024-01-30T12:23:27;10.00;99.90
30037;DHT22;36325;51.512;-0.382;2024-01-30T12:25:56;10.00;99.90
30037;DHT22;36325;51.512;-0.382;2024-01-30T12:28:23;9.90;99.90
30037;DHT22;36325;51.512;-0.382;2024-01-30T12:30:50;9.90;99.90
30037;DHT22;36325;51.512;-0.382;2024-01-30T12:33:21;9.90;99.90
30037;DHT22;36325;51.512;-0.382;2024-01-30T12:35:54;9.90;99.90
30037;DHT22;36325;51.512;-0.382;2024-01-30T12:38:27;9.90;99.90
30037;DHT22;36325;51.512;-0.382;2024-01-30T12:40:56;9.90;99.90
30037;DHT22;36325;51.512;-0.382;2024-01-30T12:46:00;9.90;99.90
30037;DHT22;36325;51.512;-0.382;2024-01-30T12:48:28;9.90;99.90
30037;DHT22;36325;51.512;-0.382;2024-01-30T12:50:58;9.90;99.90
30037;DHT22;36325;51.512;-0.382;2024-01-30T12:53:25;9.90;99.90
30037;DHT22;36325;51.512;-0.382;2024-01-30T12:55:52;9.80;99.90
30037;DHT22;36325;51.512;-0.382;2024-01-30T12:58:21;9.90;99.90
30037;DHT22;36325;51.512;-0.382;2024-01-30T13:00:48;10.00;99.90
30037;DHT22;36325;51.512;-0.382;2024-01-30T13:03:16;10.10;99.90
30037;DHT22;36325;51.512;-0.382;2024-01-30T13:05:43;10.30;99.90
30037;DHT22;36325;51.512;-0.382;2024-01-30T13:08:11;10.30;99.90
30037;DHT22;36325;51.512;-0.382;2024-01-30T13:10:38;10.40;99.90
30037;DHT22;36325;51.512;-0.382;2024-01-30T13:13:05;10.50;99.90
30037;DHT22;36325;51.512;-0.382;2024-01-30T13:15:37;10.70;99.90
30037;DHT22;36325;51.512;-0.382;2024-01-30T13:18:08;10.70;99.90
30037;DHT22;36325;51.512;-0.382;2024-01-30T13:20:36;10.80;99.90
30037;DHT22;36325;51.512;-0.382;2024-01-30T13:23:04;10.80;99.90
30037;DHT22;36325;51.512;-0.382;2024-01-30T13:25:31;11.00;99.90
30037;DHT22;36325;51.512;-0.382;2024-01-30T13:27:58;11.00;99.90
30037;DHT22;36325;51.512;-0.382;2024-01-30T13:30:27;10.90;99.90
30037;DHT22;36325;51.512;-0.382;2024-01-30T13:32:54;10.90;99.90
30037;DHT22;36325;51.512;-0.382;2024-01-30T13:35:23;10.90;99.90
30037;DHT22;36325;51.512;-0.382;2024-01-30T13:37:51;10.80;99.90
30037;DHT22;36325;51.512;-0.382;2024-01-30T13:40:19;10.90;99.90
30037;DHT22;36325;51.512;-0.382;2024-01-30T13:42:47;11.00;99.90
30037;DHT22;36325;51.512;-0.382;2024-01-30T13:45:15;11.20;99.90
30037;DHT22;36325;51.512;-0.382;2024-01-30T13:47:45;11.50;99.90
30037;DHT22;36325;51.512;-0.382;2024-01-30T13:50:13;11.50;99.90
30037;DHT22;36325;51.512;-0.382;2024-01-30T13:52:43;11.50;99.90
30037;DHT22;36325;51.512;-0.382;2024-01-30T13:55:12;11.40;99.90
30037;DHT22;36325;51.512;-0.382;2024-01-30T13:57:39;11.30;99.90
30037;DHT22;36325;51.512;-0.382;2024-01-30T14:00:07;11.20;99.90
30037;DHT22;36325;51.512;-0.382;2024-01-30T14:02:40;11.00;99.90
30037;DHT22;36325;51.512;-0.382;2024-01-30T14:05:09;10.80;99.90
30037;DHT22;36325;51.512;-0.382;2024-01-30T14:07:37;10.80;99.90
30037;DHT22;36325;51.512;-0.382;2024-01-30T14:10:06;10.70;99.90
30037;DHT22;36325;51.512;-0.382;2024-01-30T14:12:36;10.50;99.90
30037;DHT22;36325;51.512;-0.382;2024-01-30T14:15:04;10.50;99.90
30037;DHT22;36325;51.512;-0.382;2024-01-30T14:17:38;10.50;99.90
30037;DHT22;36325;51.512;-0.382;2024-01-30T14:20:05;10.50;99.90
30037;DHT22;36325;51.512;-0.382;2024-01-30T14:22:33;10.50;99.90
30037;DHT22;36325;51.512;-0.382;2024-01-30T14:25:01;10.50;99.90
30037;DHT22;36325;51.512;-0.382;2024-01-30T14:27:30;10.50;99.90
30037;DHT22;36325;51.512;-0.382;2024-01-30T14:29:58;10.50;99.90
30037;DHT22;36325;51.512;-0.382;2024-01-30T14:32:25;10.60;99.90
30037;DHT22;36325;51.512;-0.382;2024-01-30T14:34:53;10.70;99.90
30037;DHT22;36325;51.512;-0.382;2024-01-30T14:40:14;10.90;99.90
30037;DHT22;36325;51.512;-0.382;2024-01-30T14:42:42;10.90;99.90
30037;DHT22;36325;51.512;-0.382;2024-01-30T14:45:09;10.90;99.90
30037;DHT22;36325;51.512;-0.382;2024-01-30T14:47:36;10.80;99.90
30037;DHT22;36325;51.512;-0.382;2024-01-30T14:50:04;10.80;99.90
30037;DHT22;36325;51.512;-0.382;2024-01-30T14:52:34;10.90;99.90
30037;DHT22;36325;51.512;-0.382;2024-01-30T14:55:01;10.90;99.90
30037;DHT22;36325;51.512;-0.382;2024-01-30T14:57:28;10.90;99.90
30037;DHT22;36325;51.512;-0.382;2024-01-30T14:59:56;10.90;99.90
30037;DHT22;36325;51.512;-0.382;2024-01-30T15:02:23;10.90;99.90
30037;DHT22;36325;51.512;-0.382;2024-01-30T15:04:51;10.90;99.90
30037;DHT22;36325;51.512;-0.382;2024-01-30T15:07:18;10.90;99.90
30037;DHT22;36325;51.512;-0.382;2024-01-30T15:09:50;10.90;99.90
30037;DHT22;36325;51.512;-0.382;2024-01-30T15:12:20;11.00;99.90
30037;DHT22;36325;51.512;-0.382;2024-01-30T15:14:47;11.00;99.90
30037;DHT22;36325;51.512;-0.382;2024-01-30T15:17:18;11.00;99.90
30037;DHT22;36325;51.512;-0.382;2024-01-30T15:19:45;11.00;99.90
30037;DHT22;36325;51.512;-0.382;2024-01-30T15:22:13;11.00;99.90
30037;DHT22;36325;51.512;-0.382;2024-01-30T15:24:41;11.00;99.90
30037;DHT22;36325;51.512;-0.382;2024-01-30T15:27:09;11.00;99.90
30037;DHT22;36325;51.512;-0.382;2024-01-30T15:29:36;11.00;99.90
30037;DHT22;36325;51.512;-0.382;2024-01-30T15:32:04;10.90;99.90
30037;DHT22;36325;51.512;-0.382;2024-01-30T15:34:31;11.00;99.90
30037;DHT22;36325;51.512;-0.382;2024-01-30T15:36:58;10.80;99.90